createdAt,value
2022-09-30T00:01:55.224Z,98319.84
2022-09-30T00:04:25.162Z,98326.42
2022-09-30T00:06:53.967Z,98324.94
2022-09-30T00:09:22.441Z,98323.73
2022-09-30T00:11:51.506Z,98328.77
2022-09-30T00:14:22.052Z,98328.05
2022-09-30T00:16:51.111Z,98339.83
2022-09-30T00:19:19.145Z,98341.91
2022-09-30T00:21:47.833Z,98342.46
2022-09-30T00:24:15.673Z,98346.14
2022-09-30T00:26:43.500Z,98346.59
2022-09-30T00:29:12.031Z,98347.50
2022-09-30T00:31:40.236Z,98352.14
2022-09-30T00:34:08.720Z,98357.61
2022-09-30T00:36:38.831Z,98358.77
2022-09-30T00:39:09.283Z,98355.54
2022-09-30T00:41:37.934Z,98359.98
2022-09-30T00:44:44.453Z,98361.25
2022-09-30T00:47:34.678Z,98357.98
2022-09-30T00:50:12.414Z,98357.69
2022-09-30T00:52:48.551Z,98354.49
2022-09-30T00:55:31.447Z,98354.52
2022-09-30T00:58:01.853Z,98356.00
2022-09-30T01:00:30.632Z,98355.09
2022-09-30T01:02:58.739Z,98352.66
2022-09-30T01:05:27.604Z,98355.59
2022-09-30T01:08:00.791Z,98352.25
2022-09-30T01:10:28.589Z,98353.52
2022-09-30T01:12:57.968Z,98355.08
2022-09-30T01:15:44.838Z,98353.84
2022-09-30T01:18:34.339Z,98355.90
2022-09-30T01:21:26.428Z,98356.12
2022-09-30T01:24:38.316Z,98355.79
2022-09-30T01:27:24.923Z,98356.08
2022-09-30T01:30:08.504Z,98352.87
2022-09-30T01:33:11.485Z,98353.84
2022-09-30T01:36:18.054Z,98351.73
2022-09-30T01:38:58.313Z,98346.63
2022-09-30T01:41:40.992Z,98345.27
2022-09-30T01:44:23.998Z,98342.23
2022-09-30T01:47:06.424Z,98342.60
2022-09-30T01:49:52.353Z,98341.70
2022-09-30T01:52:29.961Z,98344.48
2022-09-30T01:55:29.743Z,98342.57
2022-09-30T01:58:04.332Z,98340.39
2022-09-30T02:00:37.212Z,98340.84
2022-09-30T02:03:12.898Z,98336.80
2022-09-30T02:05:58.882Z,98332.86
2022-09-30T02:09:06.452Z,98328.61
2022-09-30T02:11:37.712Z,98332.04
2022-09-30T02:14:10.011Z,98332.70
2022-09-30T02:16:40.342Z,98334.72
2022-09-30T02:19:20.625Z,98338.56
2022-09-30T02:21:56.889Z,98338.86
2022-09-30T02:24:27.383Z,98341.35
2022-09-30T02:26:58.441Z,98346.75
2022-09-30T02:29:32.491Z,98345.46
2022-09-30T02:32:08.007Z,98351.67
2022-09-30T02:34:41.903Z,98356.20
2022-09-30T02:37:21.393Z,98358.11
2022-09-30T02:40:04.773Z,98353.87
2022-09-30T02:42:33.669Z,98359.57
2022-09-30T02:45:08.726Z,98351.98
2022-09-30T02:48:04.311Z,98349.95
2022-09-30T02:50:39.380Z,98351.95
2022-09-30T02:53:26.626Z,98363.66
2022-09-30T02:56:34.501Z,98369.02
2022-09-30T02:59:02.622Z,98372.38
2022-09-30T03:01:31.666Z,98372.84
2022-09-30T03:04:06.259Z,98368.70
2022-09-30T03:06:36.480Z,98371.40
2022-09-30T03:09:06.025Z,98374.52
2022-09-30T03:11:36.118Z,98374.90
2022-09-30T03:14:41.759Z,98377.25
2022-09-30T03:17:35.063Z,98383.11
2022-09-30T03:20:35.155Z,98381.42
2022-09-30T03:23:35.277Z,98380.61
2022-09-30T03:26:40.983Z,98383.54
2022-09-30T03:29:21.814Z,98392.41
2022-09-30T03:32:16.895Z,98394.19
2022-09-30T03:35:23.834Z,98394.05
2022-09-30T03:38:05.296Z,98390.71
2022-09-30T03:40:55.854Z,98388.92
2022-09-30T03:43:35.334Z,98385.88
2022-09-30T03:46:25.353Z,98385.21
2022-09-30T03:48:58.162Z,98388.30
2022-09-30T03:51:26.983Z,98389.44
2022-09-30T03:53:56.999Z,98393.39
2022-09-30T03:56:31.173Z,98394.98
2022-09-30T03:59:00.402Z,98391.72
2022-09-30T04:01:29.384Z,98392.35
2022-09-30T04:03:57.429Z,98393.65
2022-09-30T04:06:26.509Z,98400.09
2022-09-30T04:08:54.705Z,98401.85
2022-09-30T04:11:22.897Z,98395.12
2022-09-30T04:13:51.313Z,98395.87
2022-09-30T04:16:19.563Z,98400.45
2022-09-30T04:18:47.472Z,98400.70
2022-09-30T04:21:16.123Z,98402.00
2022-09-30T04:23:44.231Z,98403.49
2022-09-30T04:26:15.053Z,98408.38
2022-09-30T04:28:43.674Z,98414.51
2022-09-30T04:31:13.555Z,98409.92
2022-09-30T04:33:41.755Z,98412.16
2022-09-30T04:36:09.870Z,98421.05
2022-09-30T04:38:40.368Z,98425.23
2022-09-30T04:41:18.145Z,98427.73
2022-09-30T04:43:47.886Z,98432.27
2022-09-30T04:46:19.590Z,98433.75
2022-09-30T04:48:47.968Z,98436.39
2022-09-30T04:51:18.169Z,98438.40
2022-09-30T04:53:48.707Z,98447.40
2022-09-30T04:56:17.111Z,98448.28
2022-09-30T04:58:51.515Z,98446.24
2022-09-30T05:01:19.488Z,98443.98
2022-09-30T05:03:49.107Z,98448.47
2022-09-30T05:06:18.225Z,98457.73
2022-09-30T05:08:47.496Z,98462.53
2022-09-30T05:11:19.981Z,98468.01
2022-09-30T05:13:50.227Z,98466.27
2022-09-30T05:16:18.168Z,98465.44
2022-09-30T05:18:47.212Z,98475.38
2022-09-30T05:21:18.497Z,98478.44
2022-09-30T05:23:46.995Z,98476.63
2022-09-30T05:26:16.129Z,98484.20
2022-09-30T05:28:44.909Z,98486.59
2022-09-30T05:31:13.792Z,98485.36
2022-09-30T05:33:42.120Z,98488.09
2022-09-30T05:36:13.702Z,98488.15
2022-09-30T05:38:41.757Z,98491.75
2022-09-30T05:41:14.343Z,98497.41
2022-09-30T05:44:03.693Z,98495.93
2022-09-30T05:46:32.250Z,98497.52
2022-09-30T05:49:00.998Z,98498.79
2022-09-30T05:51:28.789Z,98500.37
2022-09-30T05:53:57.109Z,98506.45
2022-09-30T05:56:25.328Z,98509.91
2022-09-30T05:58:54.846Z,98513.56
2022-09-30T06:01:22.690Z,98509.42
2022-09-30T06:03:50.459Z,98507.80
2022-09-30T06:06:22.030Z,98514.55
2022-09-30T06:08:51.553Z,98513.86
2022-09-30T06:11:21.789Z,98514.23
2022-09-30T06:13:50.215Z,98516.34
2022-09-30T06:16:20.242Z,98517.27
2022-09-30T06:18:48.080Z,98513.20
2022-09-30T06:21:18.210Z,98512.50
2022-09-30T06:23:46.811Z,98515.40
2022-09-30T06:26:15.009Z,98515.45
2022-09-30T06:28:44.077Z,98519.04
2022-09-30T06:31:12.859Z,98528.70
2022-09-30T06:33:42.391Z,98532.46
2022-09-30T06:36:11.426Z,98539.01
2022-09-30T06:38:50.514Z,98535.46
2022-09-30T06:41:31.759Z,98541.16
2022-09-30T06:44:01.664Z,98537.89
2022-09-30T06:46:37.178Z,98544.35
2022-09-30T06:49:13.669Z,98549.06
2022-09-30T06:51:42.289Z,98550.19
2022-09-30T06:54:11.265Z,98547.45
2022-09-30T06:56:39.358Z,98549.75
2022-09-30T06:59:07.397Z,98557.36
2022-09-30T07:01:36.161Z,98565.45
2022-09-30T07:04:09.879Z,98564.68
2022-09-30T07:06:39.290Z,98565.95
2022-09-30T07:09:10.232Z,98566.47
2022-09-30T07:11:39.256Z,98568.63
2022-09-30T07:14:08.225Z,98564.03
2022-09-30T07:16:37.349Z,98569.06
2022-09-30T07:19:07.185Z,98571.63
2022-09-30T07:21:35.333Z,98573.41
2022-09-30T07:24:03.195Z,98577.33
2022-09-30T07:26:35.270Z,98578.13
2022-09-30T07:29:19.252Z,98581.77
2022-09-30T07:31:52.917Z,98581.98
2022-09-30T07:34:20.851Z,98585.02
2022-09-30T07:36:49.676Z,98585.63
2022-09-30T07:39:19.030Z,98591.02
2022-09-30T07:41:46.855Z,98592.58
2022-09-30T07:44:15.477Z,98594.50
2022-09-30T07:46:44.854Z,98589.88
2022-09-30T07:49:16.101Z,98586.33
2022-09-30T07:51:45.746Z,98590.17
2022-09-30T07:54:16.788Z,98587.77
2022-09-30T07:59:37.643Z,98601.48
2022-09-30T08:02:07.795Z,98606.98
2022-09-30T08:04:39.124Z,98605.92
2022-09-30T08:07:09.667Z,98606.76
2022-09-30T08:09:37.882Z,98607.67
2022-09-30T08:12:05.733Z,98610.13
2022-09-30T08:14:35.749Z,98613.41
2022-09-30T08:17:03.603Z,98615.15
2022-09-30T08:19:33.814Z,98621.36
2022-09-30T08:24:30.778Z,98628.80
2022-09-30T08:26:58.649Z,98625.04
2022-09-30T08:29:53.418Z,98621.76
2022-09-30T08:32:14.984Z,98618.91
2022-09-30T08:34:42.899Z,98619.03
2022-09-30T08:37:10.681Z,98622.39
2022-09-30T08:39:38.799Z,98624.69
2022-09-30T08:42:36.637Z,98625.27
2022-09-30T08:45:22.526Z,98628.42
2022-09-30T08:48:36.376Z,98629.98
2022-09-30T08:51:27.824Z,98633.21
2022-09-30T08:54:00.411Z,98630.02
2022-09-30T08:56:31.543Z,98630.31
2022-09-30T08:59:20.394Z,98632.42
2022-09-30T09:01:51.771Z,98632.94
2022-09-30T09:04:20.124Z,98635.25
2022-09-30T09:07:03.156Z,98640.30
2022-09-30T09:09:32.825Z,98649.67
2022-09-30T09:12:29.184Z,98652.02
2022-09-30T09:15:17.941Z,98654.14
2022-09-30T09:18:24.276Z,98657.17
2022-09-30T09:20:58.199Z,98659.58
2022-09-30T09:23:28.681Z,98660.83
2022-09-30T09:25:56.767Z,98658.31
2022-09-30T09:28:53.094Z,98660.77
2022-09-30T09:31:22.608Z,98662.99
2022-09-30T09:33:53.080Z,98660.10
2022-09-30T09:36:41.460Z,98664.30
2022-09-30T09:39:30.840Z,98665.49
2022-09-30T09:42:17.385Z,98671.03
2022-09-30T09:45:04.983Z,98678.42
2022-09-30T09:47:33.743Z,98674.86
2022-09-30T09:50:04.274Z,98678.66
2022-09-30T09:52:59.262Z,98677.56
2022-09-30T09:55:27.069Z,98688.94
2022-09-30T09:58:14.505Z,98689.40
2022-09-30T10:00:48.399Z,98687.29
2022-09-30T10:03:21.170Z,98685.86
2022-09-30T10:06:10.683Z,98682.30
2022-09-30T10:08:55.266Z,98683.45
2022-09-30T10:11:27.581Z,98685.61
2022-09-30T10:13:58.550Z,98684.96
2022-09-30T10:16:28.748Z,98695.17
2022-09-30T10:18:57.513Z,98698.14
2022-09-30T10:21:28.382Z,98693.19
2022-09-30T10:23:58.283Z,98688.45
2022-09-30T10:26:28.920Z,98685.89
2022-09-30T10:29:01.074Z,98691.73
2022-09-30T10:31:36.482Z,98692.21
2022-09-30T10:34:43.511Z,98693.48
2022-09-30T10:37:17.323Z,98693.05
2022-09-30T10:39:56.458Z,98697.48
2022-09-30T10:42:47.809Z,98701.66
2022-09-30T10:45:26.222Z,98695.52
2022-09-30T10:47:56.828Z,98693.88
2022-09-30T10:50:27.864Z,98693.48
2022-09-30T10:52:58.532Z,98697.36
2022-09-30T10:55:44.246Z,98693.58
2022-09-30T11:01:46.448Z,98686.11
2022-09-30T11:04:29.758Z,98687.04
2022-09-30T11:07:44.362Z,98688.38
2022-09-30T11:10:32.777Z,98693.27
2022-09-30T11:13:37.708Z,98691.35
2022-09-30T11:16:15.393Z,98685.73
2022-09-30T11:19:05.616Z,98686.87
2022-09-30T11:21:44.333Z,98688.71
2022-09-30T11:24:24.169Z,98688.75
2022-09-30T11:27:10.547Z,98684.13
2022-09-30T11:29:47.527Z,98685.33
2022-09-30T11:32:45.627Z,98686.13
2022-09-30T11:35:44.435Z,98690.05
2022-09-30T11:38:18.244Z,98686.35
2022-09-30T11:41:01.418Z,98684.85
2022-09-30T11:43:44.830Z,98684.77
2022-09-30T11:46:37.946Z,98684.23
2022-09-30T11:49:59.702Z,98686.89
2022-09-30T11:52:46.626Z,98683.91
2022-09-30T11:55:43.956Z,98681.07
2022-09-30T12:01:41.530Z,98689.02
2022-09-30T12:04:29.478Z,98693.51
2022-09-30T12:07:01.743Z,98697.69
2022-09-30T12:09:39.355Z,98697.48
2022-09-30T12:12:16.097Z,98696.50
2022-09-30T12:14:52.153Z,98695.23
2022-09-30T12:17:33.855Z,98698.12
2022-09-30T12:20:18.739Z,98695.45
2022-09-30T12:22:49.477Z,98694.89
2022-09-30T12:25:22.198Z,98697.16
2022-09-30T12:28:00.749Z,98697.08
2022-09-30T12:30:30.675Z,98701.08
2022-09-30T12:33:18.101Z,98698.65
2022-09-30T12:36:21.300Z,98699.67
2022-09-30T12:39:32.218Z,98701.88
2022-09-30T12:42:19.838Z,98695.41
2022-09-30T12:45:25.687Z,98694.71
2022-09-30T12:47:57.549Z,98694.42
2022-09-30T12:50:35.053Z,98694.20
2022-09-30T12:53:16.488Z,98695.23
2022-09-30T12:55:45.294Z,98694.54
2022-09-30T12:58:30.712Z,98697.16
2022-09-30T13:01:24.519Z,98696.73
2022-09-30T13:04:16.936Z,98696.27
2022-09-30T13:06:47.679Z,98696.02
2022-09-30T13:09:36.021Z,98690.91
2022-09-30T13:12:04.691Z,98689.42
2022-09-30T13:14:39.734Z,98688.48
2022-09-30T13:17:11.796Z,98691.92
2022-09-30T13:19:44.873Z,98690.44
2022-09-30T13:22:19.390Z,98691.67
2022-09-30T13:25:14.744Z,98691.16
2022-09-30T13:27:47.598Z,98693.52
2022-09-30T13:30:18.236Z,98687.07
2022-09-30T13:33:06.020Z,98686.44
2022-09-30T13:35:52.882Z,98685.81
2022-09-30T13:38:32.907Z,98684.39
2022-09-30T13:41:16.500Z,98683.92
2022-09-30T13:43:56.723Z,98684.79
2022-09-30T13:46:49.953Z,98684.31
2022-09-30T13:49:21.381Z,98693.24
2022-09-30T13:51:49.506Z,98692.02
2022-09-30T13:54:40.406Z,98685.95
2022-09-30T13:57:19.857Z,98681.77
2022-09-30T14:00:07.485Z,98684.92
2022-09-30T14:03:31.446Z,98690.35
2022-09-30T14:06:15.312Z,98686.23
2022-09-30T14:09:19.022Z,98682.48
2022-09-30T14:12:14.589Z,98681.58
2022-09-30T14:15:30.556Z,98680.66
2022-09-30T14:18:10.567Z,98685.17
2022-09-30T14:20:53.169Z,98688.52
2022-09-30T14:23:21.785Z,98690.67
2022-09-30T14:26:30.321Z,98691.77
2022-09-30T14:29:25.735Z,98695.68
2022-09-30T14:31:53.715Z,98690.02
2022-09-30T14:34:26.117Z,98680.14
2022-09-30T14:36:56.596Z,98684.15
2022-09-30T14:39:36.230Z,98682.30
2022-09-30T14:42:04.456Z,98679.20
2022-09-30T14:44:36.577Z,98682.80
2022-09-30T14:47:05.469Z,98680.93
2022-09-30T14:49:36.224Z,98673.79
2022-09-30T14:52:04.687Z,98667.27
2022-09-30T14:54:33.773Z,98655.39
2022-09-30T14:57:04.309Z,98655.16
2022-09-30T14:59:34.785Z,98661.27
2022-09-30T15:02:11.118Z,98666.05
2022-09-30T15:04:43.135Z,98664.42
2022-09-30T15:07:12.359Z,98664.83
2022-09-30T15:09:44.029Z,98666.40
2022-09-30T15:12:22.436Z,98670.00
2022-09-30T15:14:57.066Z,98677.63
2022-09-30T15:17:28.735Z,98678.23
2022-09-30T15:19:58.903Z,98672.17
2022-09-30T15:22:29.168Z,98662.41
2022-09-30T15:24:59.866Z,98657.45
2022-09-30T15:27:31.659Z,98653.54
2022-09-30T15:30:03.149Z,98655.15
2022-09-30T15:32:35.072Z,98655.15
2022-09-30T15:35:11.776Z,98667.11
2022-09-30T15:37:40.407Z,98679.23
2022-09-30T15:40:36.823Z,98675.70
2022-09-30T15:43:12.106Z,98674.23
2022-09-30T15:45:44.328Z,98672.91
2022-09-30T15:48:25.909Z,98671.73
2022-09-30T15:50:56.707Z,98675.42
2022-09-30T15:53:29.576Z,98678.02
2022-09-30T15:56:19.436Z,98683.35
2022-09-30T15:58:56.857Z,98697.56
2022-09-30T16:01:36.849Z,98698.35
2022-09-30T16:04:25.038Z,98705.52
2022-09-30T16:06:59.627Z,98709.59
2022-09-30T16:09:36.998Z,98722.95
2022-09-30T16:12:10.402Z,98719.69
2022-09-30T16:14:46.927Z,98718.35
2022-09-30T16:17:23.644Z,98713.14
2022-09-30T16:19:58.273Z,98718.79
2022-09-30T16:22:53.784Z,98726.70
2022-09-30T16:25:37.554Z,98722.63
2022-09-30T16:28:15.285Z,98721.61
2022-09-30T16:30:49.332Z,98726.40
2022-09-30T16:33:18.286Z,98731.15
2022-09-30T16:35:50.303Z,98736.21
2022-09-30T16:38:18.901Z,98739.07
2022-09-30T16:40:54.300Z,98740.65
2022-09-30T16:43:22.840Z,98741.77
2022-09-30T16:45:51.442Z,98749.33
2022-09-30T16:48:21.954Z,98752.86
2022-09-30T16:51:07.797Z,98757.80
2022-09-30T16:53:35.991Z,98759.56
2022-09-30T16:56:04.942Z,98761.63
2022-09-30T16:58:32.869Z,98754.02
2022-09-30T17:01:04.367Z,98751.83
2022-09-30T17:03:33.096Z,98752.11
2022-09-30T17:06:01.367Z,98747.17
2022-09-30T17:08:30.542Z,98744.04
2022-09-30T17:10:59.179Z,98742.07
2022-09-30T17:13:27.131Z,98749.60
2022-09-30T17:15:56.429Z,98752.13
2022-09-30T17:18:24.507Z,98760.98
2022-09-30T17:20:55.969Z,98772.66
2022-09-30T17:23:25.812Z,98775.05
2022-09-30T17:25:55.385Z,98775.16
2022-09-30T17:28:23.574Z,98774.79
2022-09-30T17:30:52.487Z,98782.05
2022-09-30T17:33:21.627Z,98778.05
2022-09-30T17:36:04.539Z,98775.77
2022-09-30T17:38:42.789Z,98779.33
2022-09-30T17:41:37.678Z,98786.21
2022-09-30T17:44:05.936Z,98794.13
2022-09-30T17:46:45.581Z,98802.02
2022-09-30T17:49:17.710Z,98807.95
2022-09-30T17:51:48.495Z,98810.47
2022-09-30T17:54:16.861Z,98809.13
2022-09-30T17:56:44.952Z,98807.16
2022-09-30T17:59:15.076Z,98808.05
2022-09-30T18:01:43.373Z,98806.23
2022-09-30T18:04:12.279Z,98810.23
2022-09-30T18:06:41.527Z,98807.23
2022-09-30T18:09:10.517Z,98801.38
2022-09-30T18:11:43.262Z,98797.27
2022-09-30T18:14:14.033Z,98798.80
2022-09-30T18:16:46.741Z,98796.92
2022-09-30T18:19:15.568Z,98799.66
2022-09-30T18:21:43.492Z,98799.80
2022-09-30T18:24:13.198Z,98805.13
2022-09-30T18:26:41.207Z,98802.70
2022-09-30T18:29:09.635Z,98803.42
2022-09-30T18:31:39.853Z,98803.66
2022-09-30T18:34:09.776Z,98805.38
2022-09-30T18:36:39.279Z,98812.91
2022-09-30T18:39:10.840Z,98821.69
2022-09-30T18:41:45.824Z,98828.63
2022-09-30T18:44:15.477Z,98818.83
2022-09-30T18:46:44.984Z,98824.33
2022-09-30T18:49:14.677Z,98825.40
2022-09-30T18:51:43.382Z,98822.14
2022-09-30T18:54:13.664Z,98823.34
2022-09-30T18:56:44.694Z,98823.88
2022-09-30T18:59:18.374Z,98832.58
2022-09-30T19:01:49.757Z,98828.80
2022-09-30T19:04:18.231Z,98827.98
2022-09-30T19:06:49.277Z,98822.61
2022-09-30T19:09:19.599Z,98818.08
2022-09-30T19:11:51.662Z,98823.95
2022-09-30T19:14:20.313Z,98810.57
2022-09-30T19:16:52.714Z,98798.27
2022-09-30T19:19:23.325Z,98797.35
2022-09-30T19:21:51.534Z,98800.10
2022-09-30T19:24:22.965Z,98799.62
2022-09-30T19:26:56.741Z,98802.45
2022-09-30T19:29:33.580Z,98797.05
2022-09-30T19:32:07.834Z,98796.00
2022-09-30T19:34:37.132Z,98796.77
2022-09-30T19:37:08.275Z,98797.30
2022-09-30T19:39:45.816Z,98800.04
2022-09-30T19:42:19.219Z,98803.55
2022-09-30T19:44:52.323Z,98804.98
2022-09-30T19:47:21.255Z,98804.43
2022-09-30T19:49:50.557Z,98804.25
2022-09-30T19:52:22.343Z,98806.00
2022-09-30T19:54:56.990Z,98806.91
2022-09-30T19:57:28.187Z,98808.58
2022-09-30T19:59:57.544Z,98803.95
2022-09-30T20:02:28.425Z,98798.77
2022-09-30T20:04:57.635Z,98795.63
2022-09-30T20:07:28.248Z,98796.09
2022-09-30T20:09:57.391Z,98794.28
2022-09-30T20:12:28.983Z,98793.95
2022-09-30T20:15:15.903Z,98796.35
2022-09-30T20:17:44.259Z,98792.61
2022-09-30T20:20:30.986Z,98793.95
2022-09-30T20:23:02.274Z,98792.29
2022-09-30T20:25:31.380Z,98790.42
2022-09-30T20:28:00.248Z,98788.39
2022-09-30T20:30:30.102Z,98793.89
2022-09-30T20:33:05.289Z,98791.58
2022-09-30T20:35:37.161Z,98787.23
2022-09-30T20:38:07.101Z,98783.66
2022-09-30T20:40:36.094Z,98782.23
2022-09-30T20:43:04.506Z,98782.22
2022-09-30T20:45:32.760Z,98781.29
2022-09-30T20:48:04.055Z,98779.91
2022-09-30T20:50:38.229Z,98784.40
2022-09-30T20:53:09.768Z,98779.48
2022-09-30T20:55:41.318Z,98780.96
2022-09-30T20:58:11.045Z,98778.20
2022-09-30T21:00:41.712Z,98777.02
2022-09-30T21:03:12.450Z,98775.08
2022-09-30T21:05:53.974Z,98773.79
2022-09-30T21:08:21.939Z,98774.08
2022-09-30T21:10:50.318Z,98770.09
2022-09-30T21:13:18.401Z,98770.58
2022-09-30T21:15:46.213Z,98774.03
2022-09-30T21:18:16.932Z,98775.90
2022-09-30T21:20:44.721Z,98778.50
2022-09-30T21:23:16.070Z,98779.48
2022-09-30T21:25:46.562Z,98779.49
2022-09-30T21:28:14.755Z,98774.66
2022-09-30T21:30:44.391Z,98775.30
2022-09-30T21:33:12.258Z,98778.42
2022-09-30T21:35:40.022Z,98780.58
2022-09-30T21:38:08.547Z,98783.67
2022-09-30T21:40:36.906Z,98784.02
2022-09-30T21:43:04.920Z,98784.14
2022-09-30T21:45:32.769Z,98778.69
2022-09-30T21:48:06.205Z,98781.72
2022-09-30T21:50:35.792Z,98776.90
2022-09-30T21:53:04.708Z,98775.66
2022-09-30T21:55:33.613Z,98775.83
2022-09-30T21:58:01.892Z,98777.90
2022-09-30T22:00:29.680Z,98777.35
2022-09-30T22:02:58.128Z,98774.84
2022-09-30T22:05:26.575Z,98776.77
2022-09-30T22:07:54.360Z,98771.83
2022-09-30T22:10:25.020Z,98777.97
2022-09-30T22:12:52.912Z,98782.31
2022-09-30T22:15:20.759Z,98789.59
2022-09-30T22:17:53.794Z,98787.30
2022-09-30T22:20:21.909Z,98783.91
2022-09-30T22:22:50.215Z,98782.75
2022-09-30T22:25:20.603Z,98782.34
2022-09-30T22:27:49.470Z,98779.86
2022-09-30T22:30:17.788Z,98775.72
2022-09-30T22:32:45.953Z,98781.52
2022-09-30T22:35:32.323Z,98780.32
2022-09-30T22:38:15.356Z,98783.61
2022-09-30T22:40:43.206Z,98787.34
2022-09-30T22:43:10.957Z,98787.92
2022-09-30T22:45:39.406Z,98787.95
2022-09-30T22:48:07.924Z,98790.80
2022-09-30T22:50:36.137Z,98793.36
2022-09-30T22:53:04.294Z,98792.25
2022-09-30T22:55:33.303Z,98785.41
2022-09-30T22:58:01.045Z,98788.81
2022-09-30T23:00:29.212Z,98789.78
2022-09-30T23:02:57.028Z,98790.41
2022-09-30T23:05:26.124Z,98792.13
2022-09-30T23:07:53.905Z,98788.43
2022-09-30T23:10:21.707Z,98785.55
2022-09-30T23:12:52.430Z,98784.94
2022-09-30T23:15:20.181Z,98786.58
2022-09-30T23:17:48.425Z,98782.88
2022-09-30T23:20:16.664Z,98785.70
2022-09-30T23:22:44.537Z,98791.27
2022-09-30T23:25:12.876Z,98792.67
2022-09-30T23:27:40.990Z,98793.29
2022-09-30T23:30:09.239Z,98799.70
2022-09-30T23:32:37.327Z,98801.58
2022-09-30T23:35:05.690Z,98807.26
2022-09-30T23:37:33.474Z,98804.25
2022-09-30T23:40:01.760Z,98807.05
2022-09-30T23:42:32.226Z,98805.89
2022-09-30T23:45:00.893Z,98802.66
2022-09-30T23:47:29.034Z,98802.77
2022-09-30T23:49:58.385Z,98800.59
2022-09-30T23:52:26.135Z,98801.27
2022-09-30T23:54:53.912Z,98803.05
2022-09-30T23:57:22.288Z,98804.10
2022-09-30T23:59:50.504Z,98807.23
